Time;durP1;ratioP1;P1;durP2;ratioP2;P2;SDS_P1;SDS_P2;PMS_P1;PMS_P2;Temp;Humidity;BMP_temperature;BMP_pressure;BME280_temperature;BME280_humidity;BME280_pressure;Samples;Min_cycle;Max_cycle;Signal;HPM_P1;HPM_P2
2021/11/19 00:01:43;;;;;;;59.88;31.17;;;;;;;1.92;73.90;100442.81;1785837;80;21323;-76
2021/11/19 00:04:48;;;;;;;;;;;;;;;1.98;73.80;100430.72;1775732;80;21783;-77
2021/11/19 00:07:54;;;;;;;71.15;35.90;;;;;;;1.94;73.65;100429.23;1798523;79;20276;-77
2021/11/19 00:11:05;;;;;;;69.58;34.60;;;;;;;1.93;73.90;100440.97;1777329;80;21918;-77
2021/11/19 00:14:12;;;;;;;87.00;36.10;;;;;;;1.94;74.03;100434.63;1745882;82;21202;-77
2021/11/19 00:17:17;;;;;;;73.72;32.93;;;;;;;1.92;74.15;100437.41;1746419;82;21860;-77
2021/11/19 00:20:28;;;;;;;68.02;33.13;;;;;;;1.93;74.34;100432.88;1745290;82;22514;-77
2021/11/19 00:23:34;;;;;;;71.28;33.45;;;;;;;1.87;74.54;100427.97;1745195;82;21921;-77
2021/11/19 00:26:39;;;;;;;68.33;32.50;;;;;;;1.85;74.86;100423.19;1758378;81;21192;-77
2021/11/19 00:29:46;;;;;;;71.25;33.45;;;;;;;1.83;75.06;100422.43;1776150;80;21342;-77
2021/11/19 00:32:52;;;;;;;65.28;31.07;;;;;;;1.79;75.30;100421.34;1761414;80;21865;-77
2021/11/19 00:35:58;;;;;;;67.27;32.55;;;;;;;1.78;75.59;100419.59;1747071;82;21337;-77
2021/11/19 00:39:06;;;;;;;65.55;30.20;;;;;;;1.76;76.00;100412.12;1773855;80;21295;-77
2021/11/19 00:42:12;;;;;;;65.70;32.33;;;;;;;1.76;76.37;100414.81;1741038;82;21173;-77
2021/11/19 00:45:21;;;;;;;67.67;31.95;;;;;;;1.74;76.79;100415.44;1723000;83;21359;-77
2021/11/19 00:48:27;;;;;;;62.75;30.90;;;;;;;1.71;77.21;100408.92;1759784;81;21182;-77
2021/11/19 00:51:37;;;;;;;70.10;31.27;;;;;;;1.76;77.55;100401.33;1763268;81;21181;-77
2021/11/19 00:54:43;;;;;;;64.15;31.87;;;;;;;1.78;77.60;100398.50;1764372;81;21364;-77
2021/11/19 00:57:48;;;;;;;65.60;31.60;;;;;;;1.77;77.73;100392.26;1764839;81;21847;-77
2021/11/19 01:00:57;;;;;;;59.10;29.05;;;;;;;1.77;78.01;100394.09;1764932;81;22472;-77
2021/11/19 01:04:02;;;;;;;57.20;28.62;;;;;;;1.82;78.37;100390.55;1764316;81;21865;-77
2021/11/19 01:07:07;;;;;;;59.83;29.32;;;;;;;1.90;78.52;100381.88;1759518;81;21348;-77
2021/11/19 01:10:11;;;;;;;49.25;26.55;;;;;;;1.91;78.45;100384.94;1759966;81;21351;-77
2021/11/19 01:13:18;;;;;;;51.50;26.23;;;;;;;1.87;78.56;100380.27;1761940;81;21304;-77
2021/11/19 01:16:31;;;;;;;52.93;26.97;;;;;;;1.85;78.74;100377.34;1761065;81;21300;-77
2021/11/19 01:19:41;;;;;;;50.75;25.60;;;;;;;1.84;78.98;100379.17;1760025;81;21240;-77
2021/11/19 01:22:49;;;;;;;61.53;26.82;;;;;;;1.82;79.22;100377.56;1761312;81;21186;-77
2021/11/19 01:26:02;;;;;;;63.40;28.45;;;;;;;1.82;79.46;100375.72;1759901;81;21594;-77
2021/11/19 01:29:09;;;;;;;58.48;27.77;;;;;;;1.87;79.55;100375.36;1761217;81;21871;-77
2021/11/19 01:32:18;;;;;;;63.25;28.55;;;;;;;1.90;79.57;100376.48;1761698;81;21375;-77
2021/11/19 01:35:31;;;;;;;63.35;29.23;;;;;;;1.91;79.52;100379.55;1760799;81;21744;-77
2021/11/19 01:38:40;;;;;;;57.23;27.45;;;;;;;1.93;79.64;100369.02;1748386;81;22097;-77
2021/11/19 01:41:51;;;;;;;57.93;29.07;;;;;;;1.98;79.73;100364.62;1758961;81;21316;-77
2021/11/19 01:45:11;;;;;;;60.65;30.88;;;;;;;2.01;79.69;100361.66;1759996;81;21575;-77
2021/11/19 01:48:26;;;;;;;69.07;31.25;;;;;;;2.03;79.65;100363.77;1761298;81;21487;-77
2021/11/19 01:51:50;;;;;;;60.20;26.70;;;;;;;2.02;79.66;100361.56;1760423;81;21875;-77
2021/11/19 01:55:06;;;;;;;74.05;34.58;;;;;;;2.01;79.68;100367.91;1761108;81;21339;-77
2021/11/19 01:58:25;;;;;;;88.75;40.23;;;;;;;1.95;79.95;100363.00;1762466;81;21788;-77
2021/11/19 02:01:45;;;;;;;77.90;37.27;;;;;;;1.91;80.21;100365.56;1761730;81;21577;-77
2021/11/19 02:05:01;;;;;;;76.07;37.88;;;;;;;1.92;80.43;100375.86;1761150;81;22028;-78
2021/11/19 02:08:21;;;;;;;79.67;37.98;;;;;;;1.92;80.63;100371.81;1754679;81;21324;-77
2021/11/19 02:11:50;;;;;;;95.00;45.65;;;;;;;1.90;80.63;100367.91;1796138;80;21312;-77
2021/11/19 02:15:09;;;;;;;96.60;46.08;;;;;;;1.88;80.81;100355.50;1796244;80;21335;-77
2021/11/19 02:18:22;;;;;;;88.60;47.10;;;;;;;1.95;81.04;100350.01;1778502;79;21853;-78
2021/11/19 02:21:34;;;;;;;101.42;46.63;;;;;;;2.00;80.85;100338.36;1770835;81;21283;-78
2021/11/19 02:24:44;;;;;;;110.03;51.00;;;;;;;2.04;80.75;100347.94;1769671;81;21287;-77
2021/11/19 02:28:06;;;;;;;106.10;48.65;;;;;;;2.07;80.59;100345.47;1769673;81;21279;-77
2021/11/19 02:31:22;;;;;;;98.12;46.88;;;;;;;2.08;80.60;100346.72;1770093;81;21357;-77
2021/11/19 02:34:28;;;;;;;88.33;40.45;;;;;;;2.08;80.73;100342.67;1769931;81;21251;-77
2021/11/19 02:38:03;;;;;;;84.45;40.40;;;;;;;2.13;80.74;100336.42;1747964;81;21228;-77
2021/11/19 02:41:10;;;;;;;78.60;37.13;;;;;;;2.15;80.62;100333.09;1771041;81;21270;-77
2021/11/19 02:44:17;;;;;;;86.72;38.95;;;;;;;2.16;80.59;100336.16;1769789;81;21294;-77
2021/11/19 02:47:25;;;;;;;75.32;35.80;;;;;;;2.20;80.66;100335.42;1769754;81;21803;-77
2021/11/19 02:50:32;;;;;;;76.62;34.92;;;;;;;2.26;80.54;100327.72;1769866;81;21296;-78
2021/11/19 02:53:37;;;;;;;74.40;33.63;;;;;;;2.28;80.26;100328.94;1769535;81;21308;-77
2021/11/19 02:56:44;;;;;;;73.00;33.55;;;;;;;2.29;80.18;100329.30;1768525;81;21217;-78
2021/11/19 02:59:49;;;;;;;79.35;34.48;;;;;;;2.31;80.12;100328.70;1768228;81;21348;-78
2021/11/19 03:02:54;;;;;;;74.62;32.67;;;;;;;2.29;80.00;100330.16;1768046;81;21200;-77
2021/11/19 03:06:00;;;;;;;82.45;34.27;;;;;;;2.26;80.13;100318.77;1769570;81;21331;-78
2021/11/19 03:09:07;;;;;;;66.72;32.50;;;;;;;2.25;80.24;100323.77;1766699;81;21196;-77
2021/11/19 03:12:14;;;;;;;72.67;33.63;;;;;;;2.27;80.28;100311.88;1768554;81;21300;-77
2021/11/19 03:15:24;;;;;;;76.47;36.73;;;;;;;2.29;80.20;100308.56;1769808;81;21900;-77
2021/11/19 03:18:31;;;;;;;71.55;36.65;;;;;;;2.27;79.99;100319.98;1794998;79;21295;-77
2021/11/19 03:21:37;;;;;;;85.00;36.50;;;;;;;2.22;79.84;100323.55;1801425;79;21252;-78
2021/11/19 03:24:43;;;;;;;67.40;32.50;;;;;;;2.17;79.86;100319.01;1801870;79;21268;-77
2021/11/19 03:27:48;;;;;;;70.30;32.80;;;;;;;2.12;79.64;100315.82;1799924;79;21811;-78
2021/11/19 03:30:56;;;;;;;70.00;35.40;;;;;;;2.03;79.63;100328.69;1801046;79;21909;-77
2021/11/19 03:34:01;;;;;;;83.82;32.55;;;;;;;1.91;79.87;100322.90;1817157;79;21834;-78
2021/11/19 03:37:06;;;;;;;74.95;34.63;;;;;;;1.82;79.91;100318.23;1815785;79;21255;-77
2021/11/19 03:40:12;;;;;;;81.72;34.48;;;;;;;1.70;80.03;100309.27;1815980;79;21282;-77
2021/11/19 03:43:21;;;;;;;67.58;33.83;;;;;;;1.63;80.32;100311.56;1817960;79;21351;-77
2021/11/19 03:46:31;;;;;;;79.27;36.55;;;;;;;1.61;80.52;100307.29;1818037;79;22541;-77
2021/11/19 03:49:37;;;;;;;73.92;34.33;;;;;;;1.59;80.55;100302.00;1769911;81;21379;-77
2021/11/19 03:52:45;;;;;;;81.35;35.80;;;;;;;1.58;80.76;100300.28;1769608;81;21869;-77
2021/11/19 03:55:51;;;;;;;79.17;34.78;;;;;;;1.60;80.90;100307.78;1770086;81;21288;-77
2021/11/19 03:58:57;;;;;;;72.30;33.48;;;;;;;1.62;80.88;100308.51;1770120;81;21704;-78
2021/11/19 04:02:03;;;;;;;79.53;34.05;;;;;;;1.63;80.93;100301.27;1769888;81;21836;-78
2021/11/19 04:05:09;;;;;;;73.02;33.50;;;;;;;1.64;80.95;100303.84;1768526;81;21244;-78
2021/11/19 04:08:16;;;;;;;68.85;33.95;;;;;;;1.64;80.83;100294.89;1769678;81;21378;-78
2021/11/19 04:11:25;;;;;;;85.12;36.60;;;;;;;1.65;80.98;100293.45;1741786;82;21325;-78
2021/11/19 04:14:31;;;;;;;69.70;34.70;;;;;;;1.67;81.05;100302.27;1755101;80;21881;-78
2021/11/19 04:17:36;;;;;;;62.98;31.23;;;;;;;1.66;81.05;100296.51;1763559;81;21165;-78
2021/11/19 04:20:42;;;;;;;65.85;32.95;;;;;;;1.68;81.08;100300.42;1742883;82;21312;-77
2021/11/19 04:23:51;;;;;;;69.70;33.05;;;;;;;1.67;80.91;100294.67;1743276;82;21394;-77
2021/11/19 04:26:57;;;;;;;78.50;36.63;;;;;;;1.68;80.98;100294.53;1742345;82;21346;-77
2021/11/19 04:30:05;;;;;;;82.08;36.73;;;;;;;1.71;81.22;100292.96;1739290;82;21787;-78
2021/11/19 04:33:11;;;;;;;71.50;34.83;;;;;;;1.75;81.40;100286.84;1762892;80;21859;-78
2021/11/19 04:36:17;;;;;;;64.53;33.67;;;;;;;1.77;81.47;100287.57;1773899;81;21866;-78
2021/11/19 04:39:22;;;;;;;81.53;36.28;;;;;;;1.81;81.36;100281.45;1773053;81;21339;-78
2021/11/19 04:42:28;;;;;;;78.02;36.10;;;;;;;1.80;81.12;100277.90;1773869;81;21715;-78
2021/11/19 04:45:36;;;;;;;87.42;38.02;;;;;;;1.78;81.19;100286.58;1773606;81;21315;-77
2021/11/19 04:48:42;;;;;;;76.90;37.90;;;;;;;1.75;81.11;100282.30;1749501;81;21838;-77
2021/11/19 04:51:49;;;;;;;79.95;35.98;;;;;;;1.71;81.16;100304.23;1745796;82;21237;-77
2021/11/19 04:54:54;;;;;;;88.72;40.45;;;;;;;1.66;81.34;100303.25;1745102;82;21343;-77
2021/11/19 04:58:00;;;;;;;86.60;42.70;;;;;;;1.57;81.39;100308.01;1743776;81;21225;-78
2021/11/19 05:01:22;;;;;;;88.22;42.40;;;;;;;1.53;81.80;100307.38;1746931;80;21348;-77
2021/11/19 05:04:32;;;;;;;98.70;47.40;;;;;;;1.49;81.84;100303.69;1741168;81;21193;-77
2021/11/19 05:07:38;;;;;;;110.28;50.28;;;;;;;1.42;81.96;100302.46;1754615;80;21376;-77
2021/11/19 05:10:47;;;;;;;120.67;53.48;;;;;;;1.38;82.31;100307.22;1760760;79;21153;-77
2021/11/19 05:13:58;;;;;;;100.47;47.83;;;;;;;1.36;82.61;100316.39;1783055;79;21296;-77
2021/11/19 05:17:05;;;;;;;81.10;37.15;;;;;;;1.34;82.86;100313.82;1770068;79;21304;-78
2021/11/19 05:20:16;;;;;;;113.68;51.35;;;;;;;1.34;83.33;100306.22;1769342;79;21350;-78
2021/11/19 05:23:22;;;;;;;94.60;47.83;;;;;;;1.34;83.48;100297.65;1768438;79;21819;-78
2021/11/19 05:26:30;;;;;;;94.90;45.15;;;;;;;1.37;83.73;100304.16;1769134;81;21773;-79
2021/11/19 05:29:35;;;;;;;108.45;48.33;;;;;;;1.42;83.89;100300.63;1778457;79;22707;-78
2021/11/19 05:32:44;;;;;;;97.65;45.75;;;;;;;1.45;83.93;100312.49;1778903;79;21295;-78
2021/11/19 05:35:49;;;;;;;88.55;40.73;;;;;;;1.49;84.22;100310.43;1776451;79;21161;-78
2021/11/19 05:38:59;;;;;;;77.05;36.93;;;;;;;1.51;84.14;100317.92;1798176;79;21295;-78
2021/11/19 05:42:06;;;;;;;93.90;42.03;;;;;;;1.52;84.30;100329.93;1792010;79;21280;-77
2021/11/19 05:45:13;;;;;;;81.30;40.88;;;;;;;1.64;84.66;100324.55;1780738;79;21318;-80
2021/11/19 05:48:29;;;;;;;84.03;40.58;;;;;;;1.73;84.61;100312.56;1779508;79;21154;-78
2021/11/19 05:51:36;;;;;;;90.77;41.58;;;;;;;1.84;84.80;100299.61;1774637;79;21258;-78
2021/11/19 05:54:42;;;;;;;87.65;41.95;;;;;;;1.97;84.91;100296.78;1780045;78;21197;-79
2021/11/19 05:57:48;;;;;;;86.97;39.13;;;;;;;2.13;84.73;100295.09;1786810;78;21877;-78
2021/11/19 06:01:02;;;;;;;79.47;39.38;;;;;;;2.24;84.42;100291.02;1786793;79;21303;-79
2021/11/19 06:04:08;;;;;;;82.78;38.28;;;;;;;2.29;84.17;100292.36;1791957;78;21807;-79
2021/11/19 06:07:25;;;;;;;80.75;37.73;;;;;;;2.36;84.05;100281.09;1776277;79;22165;-78
2021/11/19 06:10:38;;;;;;;89.40;39.63;;;;;;;2.44;84.27;100272.70;1768566;78;21192;-78
2021/11/19 06:14:09;;;;;;;79.50;38.10;;;;;;;2.52;84.24;100266.69;1762090;78;21279;-82
2021/11/19 06:17:24;;;;;;;81.08;39.25;;;;;;;2.60;84.31;100256.63;1792170;78;21222;-79
2021/11/19 06:20:42;;;;;;;80.75;37.25;;;;;;;2.60;84.02;100249.38;1791715;78;22388;-78
2021/11/19 06:23:57;;;;;;;78.52;39.08;;;;;;;2.59;83.90;100247.66;1768030;79;21199;-79
2021/11/19 06:27:03;;;;;;;85.40;42.03;;;;;;;2.53;83.88;100236.85;1789329;79;21153;-80
2021/11/19 06:30:12;;;;;;;78.22;39.33;;;;;;;2.52;84.10;100232.94;1791424;79;21361;-80
2021/11/19 06:33:19;;;;;;;;;;;;;;;2.51;84.18;100229.39;1793654;78;21337;-78
2021/11/19 06:36:25;;;;;;;68.78;35.45;;;;;;;2.49;84.31;100238.58;1729394;81;20377;-78
2021/11/19 06:39:33;;;;;;;81.12;39.15;;;;;;;2.49;84.59;100235.88;1723327;81;21351;-80
2021/11/19 06:42:46;;;;;;;74.07;39.03;;;;;;;2.46;84.74;100234.31;1751284;80;21859;-77
2021/11/19 06:46:06;;;;;;;78.20;40.38;;;;;;;2.49;85.06;100235.88;1685761;82;21200;-79
2021/11/19 07:00:17;;;;;;;75.55;38.85;;;;;;;3.17;84.50;100246.82;1814619;78;28185;-81
2021/11/19 07:03:26;;;;;;;70.17;36.00;;;;;;;3.23;84.17;100242.23;1777564;78;21196;-82
2021/11/19 07:06:33;;;;;;;77.65;38.10;;;;;;;3.24;84.05;100243.09;1802306;77;21203;-79
2021/11/19 07:09:39;;;;;;;68.47;35.00;;;;;;;3.26;84.00;100249.23;1800140;77;22002;-80
2021/11/19 07:12:45;;;;;;;66.77;35.25;;;;;;;3.32;84.15;100246.86;1801512;77;21329;-81
2021/11/19 07:15:51;;;;;;;67.62;33.78;;;;;;;3.38;84.03;100244.61;1802174;77;21304;-81
2021/11/19 07:19:02;;;;;;;69.87;32.58;;;;;;;3.38;83.76;100236.00;1805323;77;21424;-79
2021/11/19 07:22:07;;;;;;;67.97;33.20;;;;;;;3.35;83.52;100236.28;1807771;77;21274;-79
2021/11/19 07:25:17;;;;;;;65.37;33.05;;;;;;;3.30;83.54;100252.91;1776880;78;21649;-77
2021/11/19 07:28:26;;;;;;;60.15;32.58;;;;;;;3.28;83.89;100249.95;1810014;77;21385;-79
2021/11/19 07:31:39;;;;;;;54.60;28.23;;;;;;;3.33;84.23;100246.36;1808165;77;21793;-84
2021/11/19 07:34:46;;;;;;;55.17;28.65;;;;;;;3.47;84.47;100249.23;1778963;78;21568;-83
2021/11/19 07:38:00;;;;;;;52.67;28.30;;;;;;;3.53;84.25;100252.28;1808604;77;21754;-83
2021/11/19 07:41:06;;;;;;;47.67;25.15;;;;;;;3.61;84.14;100243.98;1804268;77;21529;-83
2021/11/19 07:44:14;;;;;;;48.05;26.60;;;;;;;3.66;83.78;100245.28;1800135;77;21297;-78
2021/11/19 07:47:21;;;;;;;47.93;26.85;;;;;;;3.69;83.08;100245.03;1801746;77;21647;-81
2021/11/19 07:50:31;;;;;;;53.20;26.02;;;;;;;3.73;82.56;100251.04;1779210;78;21696;-81
2021/11/19 07:53:36;;;;;;;57.43;28.70;;;;;;;3.78;82.08;100246.08;1775153;78;21342;-83
2021/11/19 07:56:42;;;;;;;69.70;31.02;;;;;;;3.84;81.53;100250.44;1772467;78;21934;-78
2021/11/19 07:59:49;;;;;;;65.25;32.33;;;;;;;3.83;80.85;100251.94;1778085;78;21373;-78
2021/11/19 08:03:08;;;;;;;59.98;30.82;;;;;;;3.82;80.48;100251.59;1778129;78;21800;-79
2021/11/19 08:06:12;;;;;;;59.05;30.43;;;;;;;3.83;80.07;100247.38;1776852;78;21753;-77
2021/11/19 08:09:21;;;;;;;64.35;32.42;;;;;;;3.85;79.66;100241.83;1805491;77;21724;-79
2021/11/19 08:12:28;;;;;;;64.90;33.90;;;;;;;3.83;79.53;100238.41;1805717;77;21350;-81
2021/11/19 08:15:38;;;;;;;60.55;33.02;;;;;;;3.87;79.50;100241.72;1784133;78;21291;-78
2021/11/19 08:18:53;;;;;;;71.77;35.83;;;;;;;3.87;79.29;100237.16;1787042;78;21181;-79
2021/11/19 08:22:04;;;;;;;54.35;29.85;;;;;;;3.83;78.99;100241.97;1787012;78;21278;-77
2021/11/19 08:25:13;;;;;;;58.00;33.65;;;;;;;3.83;79.27;100236.56;1787905;78;21279;-78
2021/11/19 08:28:20;;;;;;;56.92;30.55;;;;;;;3.83;79.25;100233.86;1781474;78;21793;-79
2021/11/19 08:31:29;;;;;;;58.90;32.78;;;;;;;3.82;79.23;100228.59;1808470;77;21342;-79
2021/11/19 08:34:35;;;;;;;71.45;38.10;;;;;;;3.78;79.20;100222.59;1809837;77;21303;-79
2021/11/19 08:37:40;;;;;;;72.70;35.92;;;;;;;3.80;79.40;100223.79;1780265;78;22040;-78
2021/11/19 08:40:47;;;;;;;61.90;33.73;;;;;;;3.84;79.51;100210.36;1806821;77;21180;-80
2021/11/19 08:43:55;;;;;;;68.57;35.52;;;;;;;3.97;79.37;100206.08;1783534;78;21211;-79
2021/11/19 08:47:02;;;;;;;83.17;37.48;;;;;;;4.05;79.11;100206.26;1811149;77;21850;-79
2021/11/19 08:50:07;;;;;;;63.05;35.38;;;;;;;4.06;78.82;100201.20;1813882;77;21298;-79
2021/11/19 08:53:07;;;;;;;63.90;34.55;;;;;;;4.16;78.97;100199.87;1807041;77;22173;-79
2021/11/19 08:56:12;;;;;;;71.07;34.50;;;;;;;4.27;78.74;100199.25;1805324;77;21288;-77
2021/11/19 08:59:19;;;;;;;70.40;37.58;;;;;;;4.37;78.43;100195.20;1785438;78;21316;-79
2021/11/19 09:02:27;;;;;;;77.20;39.08;;;;;;;4.42;78.10;100188.88;1809713;77;21274;-78
2021/11/19 09:05:35;;;;;;;79.97;38.83;;;;;;;4.50;77.87;100184.13;1807249;77;21322;-79
2021/11/19 09:08:48;;;;;;;84.25;41.25;;;;;;;4.54;77.49;100183.70;1777752;78;21577;-80
2021/11/19 09:11:56;;;;;;;82.60;41.63;;;;;;;4.55;77.63;100182.70;1768065;79;22296;-79
2021/11/19 09:15:06;;;;;;;82.00;40.85;;;;;;;4.62;77.53;100180.30;1796989;77;21757;-80
2021/11/19 09:19:05;;;;;;;84.45;41.92;;;;;;;4.60;77.35;100170.08;1798344;77;21153;-79
2021/11/19 09:22:25;;;;;;;69.77;37.28;;;;;;;4.59;77.43;100164.31;1797693;77;21786;-80
2021/11/19 09:25:31;;;;;;;81.08;41.60;;;;;;;4.71;77.41;100165.91;1806023;77;21310;-80
2021/11/19 09:28:38;;;;;;;79.97;39.75;;;;;;;4.80;77.28;100159.63;1803656;77;21271;-84
2021/11/19 09:31:42;;;;;;;78.40;40.20;;;;;;;4.85;77.10;100162.77;1806195;77;21319;-79
2021/11/19 09:34:51;;;;;;;85.70;43.05;;;;;;;4.90;77.11;100162.84;1807972;77;21438;-79
2021/11/19 09:37:57;;;;;;;91.80;43.33;;;;;;;4.92;76.79;100154.05;1808177;77;21164;-80
2021/11/19 09:41:39;;;;;;;85.75;42.15;;;;;;;4.95;76.60;100152.41;1764026;79;21308;-78
2021/11/19 09:45:28;;;;;;;79.00;40.50;;;;;;;4.86;76.43;100152.27;1746267;80;21283;-80
2021/11/19 09:49:05;;;;;;;76.50;42.90;;;;;;;4.82;76.80;100145.42;1802953;77;21263;-79
2021/11/19 09:52:55;;;;;;;75.28;41.40;;;;;;;4.87;77.22;100131.44;1801201;77;21687;-79
2021/11/19 09:56:46;;;;;;;72.42;40.63;;;;;;;4.97;77.00;100124.66;1765718;79;21172;-80
2021/11/19 10:00:20;;;;;;;77.85;40.35;;;;;;;5.06;76.87;100119.72;1774096;79;21279;-82
2021/11/19 10:03:57;;;;;;;76.95;38.20;;;;;;;5.16;76.69;100125.97;1772079;78;21947;-83
2021/11/19 10:07:13;;;;;;;76.30;38.73;;;;;;;5.18;76.50;100111.78;1768032;79;21443;-82
2021/11/19 10:10:55;;;;;;;80.35;43.20;;;;;;;5.18;76.71;100102.30;1741038;80;21848;-85
2021/11/19 10:14:27;;;;;;;78.78;40.75;;;;;;;5.17;76.74;100095.14;1749490;80;21176;-84
2021/11/19 10:18:04;;;;;;;82.55;42.83;;;;;;;5.21;76.93;100106.05;1770487;79;21278;-84
2021/11/19 10:21:23;;;;;;;81.22;42.35;;;;;;;5.17;76.94;100112.76;1740427;80;21170;-78
2021/11/19 10:24:56;;;;;;;75.25;38.17;;;;;;;5.02;77.33;100104.23;1707251;80;21190;-79
2021/11/19 10:28:06;;;;;;;68.20;36.03;;;;;;;4.89;78.06;100087.42;1758676;80;21244;-79
2021/11/19 10:31:12;;;;;;;78.65;39.80;;;;;;;4.90;78.67;100086.95;1756066;79;22236;-78
2021/11/19 10:34:57;;;;;;;68.30;37.33;;;;;;;4.96;78.79;100082.30;1756950;80;21343;-78
2021/11/19 10:38:11;;;;;;;80.55;41.15;;;;;;;4.93;78.75;100077.15;1689626;84;21211;-79
2021/11/19 10:41:55;;;;;;;76.07;41.20;;;;;;;4.81;79.22;100075.12;1724867;81;21745;-81
2021/11/19 10:45:30;;;;;;;69.95;37.25;;;;;;;4.82;79.67;100073.61;1770146;79;22041;-81
2021/11/19 10:49:10;;;;;;;69.32;38.05;;;;;;;4.91;79.61;100076.45;1764303;79;21137;-81
2021/11/19 10:52:40;;;;;;;66.97;37.40;;;;;;;4.82;79.58;100064.13;1750120;79;21258;-83
2021/11/19 10:56:08;;;;;;;65.47;34.70;;;;;;;4.74;79.79;100075.33;1770447;79;22218;-83
2021/11/19 10:59:39;;;;;;;48.65;25.92;;;;;;;4.57;80.43;100064.23;1771209;79;21290;-82
2021/11/19 11:03:00;;;;;;;51.90;28.52;;;;;;;4.50;81.31;100057.67;1659741;84;21232;-76
2021/11/19 11:06:15;;;;;;;62.20;32.63;;;;;;;4.35;81.78;100055.05;1619915;84;21216;-77
2021/11/19 11:09:58;;;;;;;48.52;27.70;;;;;;;4.23;82.83;100047.55;1840998;76;22226;-80
2021/11/19 11:13:06;;;;;;;50.03;28.32;;;;;;;4.18;83.25;100049.83;1818302;77;21149;-77
2021/11/19 11:16:28;;;;;;;43.60;24.60;;;;;;;4.18;83.62;100055.23;1814552;77;21348;-77
2021/11/19 11:19:38;;;;;;;39.00;22.45;;;;;;;4.24;83.78;100049.78;1819266;77;21345;-79
2021/11/19 11:22:45;;;;;;;42.03;25.50;;;;;;;4.27;83.92;100040.00;1815190;77;21197;-77
2021/11/19 11:25:51;;;;;;;42.15;24.10;;;;;;;4.28;83.96;100033.58;1786104;77;21203;-79
2021/11/19 11:29:18;;;;;;;39.85;23.95;;;;;;;4.28;84.02;100037.64;1797764;77;21182;-77
2021/11/19 11:32:58;;;;;;;33.50;20.08;;;;;;;4.18;84.15;100029.52;1812600;77;21302;-78
2021/11/19 11:36:23;;;;;;;35.40;21.23;;;;;;;4.13;84.58;100019.63;1825582;77;21260;-78
2021/11/19 11:39:32;;;;;;;35.08;22.13;;;;;;;4.04;85.10;100019.12;1763772;80;21195;-77
2021/11/19 11:42:46;;;;;;;33.73;19.62;;;;;;;3.98;85.40;100016.98;1756122;80;21805;-76
2021/11/19 11:45:54;;;;;;;34.95;20.95;;;;;;;4.00;85.59;100022.63;1789569;78;21230;-78
2021/11/19 11:49:17;;;;;;;39.92;22.27;;;;;;;4.07;85.71;100021.05;1784749;78;21355;-78
2021/11/19 11:52:39;;;;;;;35.75;20.80;;;;;;;4.16;85.66;100013.08;1788557;78;21318;-77
2021/11/19 11:56:17;;;;;;;34.15;20.95;;;;;;;4.23;85.52;100006.94;1726193;79;21743;-77
2021/11/19 11:59:40;;;;;;;42.53;22.55;;;;;;;4.20;85.13;100004.53;1756862;79;21603;-78
2021/11/19 12:03:17;;;;;;;36.05;21.65;;;;;;;4.12;85.27;100004.38;1755081;80;21538;-78
2021/11/19 12:06:38;;;;;;;37.23;20.77;;;;;;;4.16;85.55;99999.55;1790319;78;21353;-77
2021/11/19 12:09:50;;;;;;;35.13;19.52;;;;;;;4.25;85.34;100013.08;1775261;78;21340;-78
2021/11/19 12:13:10;;;;;;;49.03;24.67;;;;;;;4.29;84.95;100008.23;1777596;79;21311;-77
2021/11/19 12:17:00;;;;;;;45.28;24.90;;;;;;;4.24;84.71;99997.84;1738423;79;21202;-78
2021/11/19 12:20:16;;;;;;;40.95;23.67;;;;;;;4.23;84.79;100008.29;1725809;80;21321;-76
2021/11/19 12:23:49;;;;;;;36.30;20.35;;;;;;;4.25;84.80;100004.95;1740430;80;21751;-78
2021/11/19 12:27:28;;;;;;;40.73;23.15;;;;;;;4.29;84.88;100005.03;1747382;80;21208;-76
2021/11/19 12:31:27;;;;;;;44.98;23.95;;;;;;;4.28;84.81;100003.33;1746595;80;21358;-78
2021/11/19 12:34:46;;;;;;;55.35;27.35;;;;;;;4.22;84.87;100012.50;1775918;79;21308;-77
2021/11/19 12:38:23;;;;;;;47.38;26.37;;;;;;;4.12;85.17;100015.72;1774648;79;21652;-77
2021/11/19 12:41:49;;;;;;;49.77;26.90;;;;;;;4.07;85.54;100007.52;1749148;81;21822;-77
2021/11/19 12:45:14;;;;;;;46.08;25.48;;;;;;;4.11;85.91;100012.16;1742131;81;21232;-76
2021/11/19 12:48:42;;;;;;;56.30;27.80;;;;;;;4.16;86.04;100012.58;1770713;79;21289;-76
2021/11/19 12:51:58;;;;;;;49.85;25.32;;;;;;;4.15;86.03;100004.61;1757364;81;22529;-79
2021/11/19 12:55:39;;;;;;;59.03;30.72;;;;;;;4.16;86.02;100002.25;1746802;80;21168;-78
2021/11/19 12:58:56;;;;;;;46.53;26.80;;;;;;;4.14;85.82;99996.99;1744918;80;21227;-78
2021/11/19 13:02:21;;;;;;;58.80;30.17;;;;;;;4.14;86.14;99990.70;1749575;81;21173;-78
2021/11/19 13:05:32;;;;;;;58.40;32.78;;;;;;;4.07;86.29;99995.84;1752913;80;21346;-80
2021/11/19 13:08:52;;;;;;;63.10;33.35;;;;;;;4.05;86.54;99993.78;1745345;80;21224;-79
2021/11/19 13:12:29;;;;;;;68.12;34.20;;;;;;;4.02;86.70;99987.30;1744814;80;21287;-79
2021/11/19 13:15:41;;;;;;;59.98;31.23;;;;;;;3.99;86.65;99977.59;1747557;80;21550;-79
2021/11/19 13:18:54;;;;;;;42.10;22.82;;;;;;;3.95;86.44;99987.02;1748536;80;21210;-78
2021/11/19 13:22:30;;;;;;;59.13;32.45;;;;;;;3.90;86.52;99994.67;1752749;80;21912;-79
2021/11/19 13:25:50;;;;;;;64.30;32.70;;;;;;;3.79;86.59;99997.02;1755174;80;21156;-79
2021/11/19 13:29:07;;;;;;;73.35;38.15;;;;;;;3.71;86.89;99996.86;1685968;83;21884;-78
2021/11/19 13:32:34;;;;;;;77.65;39.65;;;;;;;3.66;87.16;100003.19;1704435;83;21357;-77
2021/11/19 13:35:43;;;;;;;68.25;33.50;;;;;;;3.67;87.42;100010.34;1748691;81;21241;-79
2021/11/19 13:39:35;;;;;;;55.63;31.12;;;;;;;3.67;87.48;100013.51;1739030;81;21880;-79
2021/11/19 13:43:01;;;;;;;73.97;35.92;;;;;;;3.58;87.59;100005.27;1722279;81;21677;-78
2021/11/19 13:46:16;;;;;;;75.12;37.93;;;;;;;3.49;87.86;100004.73;1739525;81;21293;-78
2021/11/19 13:49:38;;;;;;;76.77;36.95;;;;;;;3.41;88.14;99998.30;1744662;81;21279;-78
2021/11/19 13:53:08;;;;;;;87.60;37.85;;;;;;;3.37;88.26;99990.11;1748559;81;21307;-79
2021/11/19 13:56:27;;;;;;;78.87;37.20;;;;;;;3.26;88.50;99989.23;1739030;81;21357;-78
2021/11/19 13:59:57;;;;;;;76.15;37.40;;;;;;;3.21;89.14;99990.14;1751501;81;21896;-77
2021/11/19 14:03:03;;;;;;;86.82;39.53;;;;;;;3.21;89.76;99977.98;1755697;81;21655;-78
2021/11/19 14:06:20;;;;;;;83.60;37.35;;;;;;;3.21;90.25;99976.63;1706117;83;21845;-79
2021/11/19 14:09:25;;;;;;;96.32;42.15;;;;;;;3.25;90.57;99985.33;1751519;81;21228;-79
2021/11/19 14:12:55;;;;;;;88.42;40.40;;;;;;;3.24;90.64;99992.55;1748142;81;21232;-78
2021/11/19 14:16:14;;;;;;;83.67;38.30;;;;;;;3.23;90.83;99992.20;1749320;81;21519;-78
2021/11/19 14:19:34;;;;;;;97.92;44.08;;;;;;;3.17;90.90;99992.75;1741040;81;21707;-78
2021/11/19 14:22:46;;;;;;;73.87;38.05;;;;;;;3.08;91.31;99994.92;1737590;81;21180;-78
2021/11/19 14:25:51;;;;;;;89.00;41.37;;;;;;;3.06;91.88;99995.56;1752990;81;21322;-77
2021/11/19 14:29:00;;;;;;;81.17;39.27;;;;;;;3.04;92.31;99994.83;1752804;80;21332;-77
2021/11/19 14:32:08;;;;;;;78.57;39.95;;;;;;;3.06;92.63;99999.63;1774556;80;22095;-78
2021/11/19 14:35:28;;;;;;;77.40;32.03;;;;;;;3.01;92.71;99995.97;1763027;81;21299;-78
2021/11/19 14:38:42;;;;;;;75.85;36.83;;;;;;;3.02;93.04;100004.93;1782627;80;21166;-76
2021/11/19 14:41:54;;;;;;;77.27;37.95;;;;;;;3.06;93.31;100007.73;1778669;80;21169;-76
2021/11/19 14:45:08;;;;;;;104.47;44.03;;;;;;;3.07;93.28;100003.53;1758825;81;21193;-76
2021/11/19 14:48:34;;;;;;;94.22;42.38;;;;;;;3.09;93.19;100000.67;1780225;80;21320;-76
2021/11/19 14:51:49;;;;;;;103.60;44.40;;;;;;;3.10;92.91;99999.68;1765029;81;21350;-77
2021/11/19 14:54:59;;;;;;;101.10;46.05;;;;;;;3.08;92.83;99994.42;1746560;82;21935;-76
2021/11/19 14:58:29;;;;;;;113.40;47.57;;;;;;;3.14;92.81;99989.46;1710159;84;21249;-76
2021/11/19 15:01:34;;;;;;;;;;;;;;;3.19;92.72;99992.61;1769901;81;21241;-77
2021/11/19 15:04:48;;;;;;;126.00;53.98;;;;;;;3.26;92.54;99990.58;1766154;81;20716;-77
2021/11/19 15:08:06;;;;;;;146.53;61.77;;;;;;;3.31;92.30;99989.67;1743314;80;21321;-77